createdAt,value
2019-03-23T00:00:22.699Z,14.90
2019-03-23T00:02:50.546Z,16.80
2019-03-23T00:05:18.571Z,14.90
2019-03-23T00:07:46.544Z,14.90
2019-03-23T00:10:18.321Z,14.90
2019-03-23T00:12:46.173Z,15.00
2019-03-23T00:15:14.554Z,16.80
2019-03-23T00:17:42.376Z,15.00
2019-03-23T00:20:10.226Z,14.90
2019-03-23T00:22:38.081Z,14.90
2019-03-23T00:25:06.221Z,15.10
2019-03-23T00:27:34.240Z,14.90
2019-03-23T00:30:02.329Z,14.90
2019-03-23T00:32:30.194Z,16.50
2019-03-23T00:37:25.672Z,14.80
2019-03-23T00:39:53.688Z,14.80
2019-03-23T00:42:21.677Z,14.70
2019-03-23T00:44:49.555Z,14.70
2019-03-23T00:47:17.396Z,14.60
2019-03-23T00:49:45.293Z,14.50
2019-03-23T00:52:13.273Z,14.50
2019-03-23T00:54:41.275Z,14.50
2019-03-23T00:57:09.264Z,14.40
2019-03-23T00:59:37.205Z,16.60
2019-03-23T01:02:05.258Z,14.40
2019-03-23T01:04:33.196Z,14.40
2019-03-23T01:07:01.117Z,14.40
2019-03-23T01:09:29.115Z,14.40
2019-03-23T01:14:24.612Z,14.30
2019-03-23T01:16:52.614Z,14.40
2019-03-23T01:19:20.438Z,14.40
2019-03-23T01:21:48.253Z,14.30
2019-03-23T01:24:16.093Z,14.30
2019-03-23T01:26:43.952Z,14.40
2019-03-23T01:31:39.442Z,14.40
2019-03-23T01:34:07.252Z,14.30
2019-03-23T01:36:35.314Z,14.30
2019-03-23T01:39:04.957Z,14.30
2019-03-23T01:41:32.939Z,14.30
2019-03-23T01:44:00.899Z,14.30
2019-03-23T01:46:28.876Z,14.30
2019-03-23T01:48:56.706Z,14.20
2019-03-23T01:51:24.791Z,14.20
2019-03-23T01:53:52.631Z,14.20
2019-03-23T01:56:20.652Z,14.20
2019-03-23T01:58:48.995Z,14.10
2019-03-23T02:01:16.731Z,16.00
2019-03-23T02:03:44.710Z,14.10
2019-03-23T02:06:12.446Z,14.00
2019-03-23T02:08:40.261Z,14.00
2019-03-23T02:11:08.207Z,14.00
2019-03-23T02:13:36.149Z,14.00
2019-03-23T02:16:04.113Z,13.90
2019-03-23T02:18:31.960Z,14.00
2019-03-23T02:21:00.446Z,13.90
2019-03-23T02:23:28.298Z,13.90
2019-03-23T02:25:56.186Z,13.90
2019-03-23T02:28:24.020Z,13.90
2019-03-23T02:30:51.975Z,13.90
2019-03-23T02:33:19.931Z,14.00
2019-03-23T02:35:47.908Z,13.90
2019-03-23T02:38:15.960Z,13.90
2019-03-23T02:40:43.934Z,13.90
2019-03-23T02:45:39.433Z,13.90
2019-03-23T02:48:07.466Z,13.80
2019-03-23T02:50:35.461Z,13.80
2019-03-23T02:53:03.417Z,13.80
2019-03-23T02:55:31.668Z,13.70
2019-03-23T02:57:59.756Z,13.70
2019-03-23T03:00:27.951Z,13.60
2019-03-23T03:02:55.948Z,13.60
2019-03-23T03:07:51.581Z,13.50
2019-03-23T03:10:50.941Z,13.40
2019-03-23T03:15:50.434Z,13.50
2019-03-23T03:18:18.279Z,13.40
2019-03-23T03:20:46.218Z,13.40
2019-03-23T03:23:14.286Z,13.40
2019-03-23T03:25:42.260Z,13.40
2019-03-23T03:28:10.194Z,13.40
2019-03-23T03:30:38.850Z,17.40
2019-03-23T03:33:06.991Z,13.40
2019-03-23T03:35:34.921Z,13.40
2019-03-23T03:40:30.497Z,13.40
2019-03-23T03:42:58.376Z,13.40
2019-03-23T03:45:26.848Z,13.40
2019-03-23T03:47:54.943Z,13.40
2019-03-23T03:50:22.964Z,13.40
2019-03-23T03:52:52.833Z,13.40
2019-03-23T03:55:20.764Z,13.40
2019-03-23T03:57:49.299Z,13.40
2019-03-23T04:00:17.186Z,13.30
2019-03-23T04:08:10.909Z,13.20
2019-03-23T04:10:30.079Z,13.20
2019-03-23T04:12:58.071Z,13.10
2019-03-23T04:17:53.768Z,13.10
2019-03-23T04:20:21.685Z,13.10
2019-03-23T04:25:17.129Z,13.00
2019-03-23T04:27:52.267Z,13.00
2019-03-23T04:30:20.195Z,12.90
2019-03-23T04:32:48.073Z,12.80
2019-03-23T04:35:16.027Z,12.90
2019-03-23T04:37:43.799Z,12.80
2019-03-23T04:40:12.072Z,12.80
2019-03-23T04:42:40.851Z,12.80
2019-03-23T04:45:09.169Z,12.80
2019-03-23T04:47:37.080Z,12.80
2019-03-23T04:50:05.893Z,12.80
2019-03-23T04:52:33.857Z,12.80
2019-03-23T04:55:01.712Z,12.80
2019-03-23T04:57:43.713Z,12.80
2019-03-23T05:00:09.659Z,12.80
2019-03-23T05:02:37.523Z,12.80
2019-03-23T05:12:28.348Z,12.80
2019-03-23T05:14:56.130Z,12.90
2019-03-23T05:17:24.016Z,12.80
2019-03-23T05:19:52.889Z,12.90
2019-03-23T05:22:20.786Z,12.90
2019-03-23T05:27:16.272Z,12.90
2019-03-23T05:29:44.102Z,12.80
2019-03-23T05:32:12.012Z,12.80
2019-03-23T05:34:39.818Z,12.80
2019-03-23T05:39:35.173Z,12.80
2019-03-23T05:42:03.005Z,12.80
2019-03-23T05:46:58.504Z,12.80
2019-03-23T05:49:26.467Z,12.70
2019-03-23T05:56:49.656Z,12.70
2019-03-23T05:59:17.566Z,12.70
2019-03-23T06:01:46.184Z,12.70
2019-03-23T06:04:14.223Z,12.70
2019-03-23T06:06:42.197Z,12.70
2019-03-23T06:09:10.436Z,12.70
2019-03-23T06:11:38.356Z,12.70
2019-03-23T06:16:33.992Z,12.70
2019-03-23T06:19:02.005Z,12.70
2019-03-23T06:21:29.882Z,12.70
2019-03-23T06:26:26.612Z,12.70
2019-03-23T06:31:22.386Z,12.80
2019-03-23T06:33:50.326Z,12.90
2019-03-23T06:38:45.813Z,13.00
2019-03-23T06:41:13.652Z,13.00
2019-03-23T06:46:09.207Z,13.00
2019-03-23T06:48:37.051Z,13.10
2019-03-23T06:51:04.880Z,13.10
2019-03-23T06:53:32.817Z,13.10
2019-03-23T06:58:28.109Z,13.20
2019-03-23T07:00:55.978Z,13.20
2019-03-23T07:03:23.917Z,13.30
2019-03-23T07:05:51.959Z,13.40
2019-03-23T07:08:19.851Z,13.40
2019-03-23T07:10:47.723Z,13.40
2019-03-23T07:13:15.644Z,13.50
2019-03-23T07:15:43.628Z,13.60
2019-03-23T07:18:11.500Z,13.60
2019-03-23T07:20:39.387Z,13.70
2019-03-23T07:23:07.443Z,13.80
2019-03-23T07:25:35.294Z,13.70
2019-03-23T07:28:03.158Z,18.40
2019-03-23T07:30:31.976Z,14.00
2019-03-23T07:32:59.863Z,14.10
2019-03-23T07:35:27.792Z,14.10
2019-03-23T07:40:23.326Z,14.30
2019-03-23T07:42:51.205Z,14.40
2019-03-23T07:45:19.337Z,14.50
2019-03-23T07:47:47.785Z,14.50
2019-03-23T07:50:15.904Z,14.70
2019-03-23T07:52:43.821Z,14.80
2019-03-23T07:55:12.804Z,15.00
2019-03-23T07:57:40.971Z,15.00
2019-03-23T08:00:10.232Z,16.50
2019-03-23T08:02:39.048Z,15.20
2019-03-23T08:05:07.336Z,15.50
2019-03-23T08:07:35.606Z,15.50
2019-03-23T08:10:03.863Z,15.70
2019-03-23T08:12:31.929Z,18.80
2019-03-23T08:15:00.120Z,16.00
2019-03-23T08:17:28.410Z,16.20
2019-03-23T08:19:56.431Z,16.30
2019-03-23T08:22:24.389Z,19.70
2019-03-23T08:24:52.408Z,16.70
2019-03-23T08:27:20.407Z,16.90
2019-03-23T08:29:48.536Z,17.00
2019-03-23T08:32:18.960Z,17.20
2019-03-23T08:34:47.168Z,17.40
2019-03-23T08:37:15.200Z,17.50
2019-03-23T08:39:48.542Z,20.70
2019-03-23T08:42:16.322Z,18.00
2019-03-23T08:44:44.548Z,16.80
2019-03-23T08:47:12.600Z,18.30
2019-03-23T08:49:40.635Z,18.50
2019-03-23T08:52:08.783Z,18.80
2019-03-23T08:54:36.784Z,19.00
2019-03-23T08:57:04.661Z,19.20
2019-03-23T08:59:32.715Z,19.60
2019-03-23T09:02:00.724Z,19.90
2019-03-23T09:04:28.642Z,20.20
2019-03-23T09:06:56.679Z,20.50
2019-03-23T09:09:24.708Z,21.00
2019-03-23T09:11:52.968Z,21.40
2019-03-23T09:14:23.365Z,21.80
2019-03-23T09:16:50.817Z,22.30
2019-03-23T09:19:18.934Z,22.70
2019-03-23T09:21:46.822Z,23.20
2019-03-23T09:24:14.757Z,23.60
2019-03-23T09:26:42.617Z,24.00
2019-03-23T09:29:10.503Z,24.50
2019-03-23T09:31:38.488Z,24.80
2019-03-23T09:34:06.440Z,25.20
2019-03-23T09:36:34.364Z,25.60
2019-03-23T09:39:21.648Z,22.70
2019-03-23T09:41:51.042Z,26.40
2019-03-23T09:44:19.467Z,26.80
2019-03-23T09:46:47.384Z,27.10
2019-03-23T09:49:15.392Z,27.40
2019-03-23T09:51:43.407Z,27.90
2019-03-23T09:54:11.451Z,28.30
2019-03-23T09:56:39.508Z,28.60
2019-03-23T09:59:08.291Z,29.00
2019-03-23T10:01:37.707Z,29.30
2019-03-23T10:04:06.705Z,29.70
2019-03-23T10:06:35.137Z,29.90
2019-03-23T10:09:05.824Z,30.30
2019-03-23T10:11:33.721Z,30.50
2019-03-23T10:14:03.189Z,30.90
2019-03-23T10:17:07.880Z,31.20
2019-03-23T10:19:35.943Z,31.50
2019-03-23T10:22:04.036Z,31.80
2019-03-23T10:24:31.897Z,32.00
2019-03-23T10:26:59.802Z,32.30
2019-03-23T10:29:27.951Z,32.50
2019-03-23T10:31:55.919Z,32.60
2019-03-23T10:34:23.923Z,32.90
2019-03-23T10:36:52.388Z,33.10
2019-03-23T10:39:20.682Z,33.20
2019-03-23T10:41:48.730Z,33.40
2019-03-23T10:44:16.693Z,33.60
2019-03-23T10:46:44.454Z,33.70
2019-03-23T10:49:12.414Z,33.90
2019-03-23T10:51:40.300Z,34.10
2019-03-23T10:54:08.144Z,34.20
2019-03-23T10:56:36.148Z,34.40
2019-03-23T10:59:04.152Z,34.60
2019-03-23T11:01:32.160Z,34.80
2019-03-23T11:04:00.255Z,34.90
2019-03-23T11:06:28.167Z,35.00
2019-03-23T11:08:56.102Z,35.20
2019-03-23T11:11:24.038Z,35.20
2019-03-23T11:13:53.958Z,35.40
2019-03-23T11:16:21.952Z,35.40
2019-03-23T11:18:50.386Z,35.50
2019-03-23T11:21:18.561Z,35.70
2019-03-23T11:23:46.663Z,36.00
2019-03-23T11:26:14.706Z,36.00
2019-03-23T11:28:42.695Z,36.10
2019-03-23T11:31:10.532Z,36.30
2019-03-23T11:33:38.519Z,36.40
2019-03-23T11:36:06.819Z,36.50
2019-03-23T11:38:35.222Z,36.40
2019-03-23T11:41:03.242Z,36.00
2019-03-23T11:43:31.235Z,35.70
2019-03-23T11:45:59.363Z,35.30
2019-03-23T11:48:27.366Z,34.70
2019-03-23T11:50:55.460Z,34.20
2019-03-23T11:53:23.721Z,33.70
2019-03-23T11:55:51.802Z,33.10
2019-03-23T11:58:19.864Z,32.70
2019-03-23T12:00:48.642Z,32.20
2019-03-23T12:03:16.788Z,31.90
2019-03-23T12:05:48.893Z,31.50
2019-03-23T12:08:16.975Z,31.10
2019-03-23T12:10:46.216Z,33.40
2019-03-23T12:13:14.491Z,30.50
2019-03-23T12:15:42.524Z,30.30
2019-03-23T12:18:10.975Z,30.00
2019-03-23T12:20:40.179Z,29.70
2019-03-23T12:23:08.477Z,29.30
2019-03-23T12:25:36.621Z,29.40
2019-03-23T12:28:05.484Z,29.20
2019-03-23T12:30:34.361Z,29.10
2019-03-23T12:33:02.315Z,29.00
2019-03-23T12:35:30.297Z,28.80
2019-03-23T12:37:58.013Z,28.70
2019-03-23T12:40:28.001Z,28.60
2019-03-23T12:42:55.989Z,28.50
2019-03-23T12:45:24.030Z,28.50
2019-03-23T12:47:51.998Z,28.30
2019-03-23T12:50:20.244Z,28.30
2019-03-23T12:52:48.277Z,28.30
2019-03-23T12:55:16.165Z,28.20
2019-03-23T12:57:44.140Z,28.10
2019-03-23T13:00:12.995Z,28.00
2019-03-23T13:02:42.166Z,28.00
2019-03-23T13:05:52.149Z,27.90
2019-03-23T13:09:06.368Z,27.90
2019-03-23T13:11:36.016Z,26.50
2019-03-23T13:17:16.400Z,27.80
2019-03-23T13:20:26.840Z,27.70
2019-03-23T13:22:54.974Z,27.70
2019-03-23T13:25:24.665Z,27.60
2019-03-23T13:27:53.280Z,27.50
2019-03-23T13:30:22.587Z,27.50
2019-03-23T13:32:51.051Z,27.50
2019-03-23T13:35:19.525Z,27.50
2019-03-23T13:37:48.493Z,25.90
2019-03-23T13:40:17.966Z,27.50
2019-03-23T13:42:47.083Z,27.40
2019-03-23T13:45:15.258Z,27.50
2019-03-23T13:47:43.220Z,27.40
2019-03-23T13:50:12.306Z,27.40
2019-03-23T13:52:40.454Z,27.40
2019-03-23T13:55:13.983Z,27.40
2019-03-23T13:58:08.604Z,27.40
2019-03-23T14:00:36.803Z,27.40
2019-03-23T14:03:05.201Z,27.40
2019-03-23T14:05:33.310Z,27.40
2019-03-23T14:08:01.324Z,27.30
2019-03-23T14:10:29.471Z,29.00
2019-03-23T14:12:57.582Z,27.30
2019-03-23T14:15:25.791Z,27.40
2019-03-23T14:17:53.809Z,27.40
2019-03-23T14:20:24.092Z,27.40
2019-03-23T14:22:51.998Z,27.50
2019-03-23T14:25:23.243Z,27.50
2019-03-23T14:27:52.086Z,27.40
2019-03-23T14:30:20.477Z,27.30
2019-03-23T14:32:48.701Z,27.50
2019-03-23T14:35:16.731Z,27.40
2019-03-23T14:37:44.650Z,27.50
2019-03-23T14:40:12.781Z,27.30
2019-03-23T14:42:40.749Z,27.40
2019-03-23T14:45:09.311Z,27.40
2019-03-23T14:47:37.182Z,27.30
2019-03-23T14:50:05.729Z,27.30
2019-03-23T14:52:33.688Z,27.20
2019-03-23T14:55:01.668Z,27.20
2019-03-23T14:57:29.665Z,27.20
2019-03-23T14:59:57.557Z,27.10
2019-03-23T15:02:25.517Z,27.00
2019-03-23T15:04:54.271Z,27.10
2019-03-23T15:07:22.046Z,27.00
2019-03-23T15:09:49.841Z,27.00
2019-03-23T15:12:25.289Z,26.90
2019-03-23T15:14:53.393Z,26.90
2019-03-23T15:17:21.529Z,26.90
2019-03-23T15:19:49.541Z,27.00
2019-03-23T15:22:17.533Z,27.10
2019-03-23T15:24:45.691Z,27.20
2019-03-23T15:27:13.754Z,27.40
2019-03-23T15:29:41.811Z,27.60
2019-03-23T15:32:11.422Z,27.70
2019-03-23T15:34:39.530Z,27.80
2019-03-23T15:37:07.571Z,28.10
2019-03-23T15:39:35.843Z,28.20
2019-03-23T15:42:03.793Z,28.00
2019-03-23T15:44:32.053Z,28.30
2019-03-23T15:47:00.442Z,28.50
2019-03-23T15:49:31.139Z,28.50
2019-03-23T15:51:59.858Z,28.60
2019-03-23T15:54:28.023Z,28.60
2019-03-23T15:56:58.563Z,28.60
2019-03-23T16:02:54.891Z,28.70
2019-03-23T16:05:22.905Z,28.20
2019-03-23T16:07:51.173Z,28.00
2019-03-23T16:10:19.268Z,27.90
2019-03-23T16:12:47.444Z,27.60
2019-03-23T16:15:16.007Z,27.50
2019-03-23T16:17:44.414Z,27.20
2019-03-23T16:20:14.491Z,27.00
2019-03-23T16:22:42.599Z,26.80
2019-03-23T16:25:10.584Z,26.60
2019-03-23T16:27:38.693Z,26.40
2019-03-23T16:30:08.196Z,26.30
2019-03-23T16:32:36.661Z,26.10
2019-03-23T16:35:05.419Z,26.00
2019-03-23T16:37:33.464Z,25.80
2019-03-23T16:40:01.378Z,25.70
2019-03-23T16:42:29.520Z,25.50
2019-03-23T16:44:57.390Z,25.40
2019-03-23T16:47:25.490Z,25.20
2019-03-23T16:49:53.393Z,25.20
2019-03-23T16:52:22.125Z,25.10
2019-03-23T16:54:50.325Z,24.90
2019-03-23T16:57:18.432Z,24.80
2019-03-23T16:59:46.562Z,24.70
2019-03-23T17:02:17.716Z,24.60
2019-03-23T17:04:45.738Z,24.50
2019-03-23T17:07:13.779Z,24.40
2019-03-23T17:09:42.046Z,24.40
2019-03-23T17:12:10.210Z,24.20
2019-03-23T17:14:38.378Z,24.10
2019-03-23T17:19:48.662Z,24.00
2019-03-23T17:22:16.708Z,23.80
2019-03-23T17:24:44.865Z,23.80
2019-03-23T17:27:13.734Z,23.70
2019-03-23T17:29:43.378Z,23.60
2019-03-23T17:32:11.564Z,23.60
2019-03-23T17:34:39.770Z,23.50
2019-03-23T17:37:07.816Z,23.40
2019-03-23T17:39:36.085Z,23.40
2019-03-23T17:42:06.336Z,23.30
2019-03-23T17:44:38.957Z,23.20
2019-03-23T17:47:07.299Z,23.10
2019-03-23T17:49:35.478Z,23.10
2019-03-23T17:52:03.692Z,23.00
2019-03-23T17:54:31.666Z,23.00
2019-03-23T17:56:59.856Z,22.90
2019-03-23T17:59:27.762Z,22.80
2019-03-23T18:01:55.694Z,22.80
2019-03-23T18:04:23.760Z,22.70
2019-03-23T18:06:53.064Z,22.60
2019-03-23T18:09:49.925Z,22.50
2019-03-23T18:12:18.119Z,22.50
2019-03-23T18:14:46.095Z,22.40
2019-03-23T18:19:48.404Z,22.30
2019-03-23T18:22:16.429Z,22.20
2019-03-23T18:24:44.523Z,22.10
2019-03-23T18:27:15.018Z,22.10
2019-03-23T18:29:43.337Z,22.00
2019-03-23T18:32:11.491Z,21.90
2019-03-23T18:34:39.566Z,21.90
2019-03-23T18:37:07.628Z,21.90
2019-03-23T18:39:36.207Z,21.80
2019-03-23T18:42:04.316Z,21.80
2019-03-23T18:44:33.283Z,21.70
2019-03-23T18:47:04.723Z,21.60
2019-03-23T18:49:32.857Z,21.60
2019-03-23T18:52:01.112Z,21.50
2019-03-23T18:54:29.177Z,21.50
2019-03-23T18:56:57.377Z,21.40
2019-03-23T18:59:27.142Z,21.40
2019-03-23T19:01:55.413Z,21.40
2019-03-23T19:04:23.439Z,21.30
2019-03-23T19:06:51.423Z,21.20
2019-03-23T19:09:19.476Z,21.20
2019-03-23T19:12:04.192Z,23.50
2019-03-23T19:19:41.071Z,21.00
2019-03-23T19:22:09.146Z,20.90
2019-03-23T19:24:37.218Z,20.90
2019-03-23T19:27:05.262Z,20.80
2019-03-23T19:29:33.251Z,20.80
2019-03-23T19:32:02.024Z,20.80
2019-03-23T19:34:30.251Z,20.70
2019-03-23T19:36:58.567Z,20.60
2019-03-23T19:39:26.850Z,20.60
2019-03-23T19:41:55.088Z,20.50
2019-03-23T19:44:23.288Z,20.50
2019-03-23T19:46:52.437Z,20.40
2019-03-23T19:49:20.807Z,20.40
2019-03-23T19:51:52.935Z,20.40
2019-03-23T19:54:21.049Z,20.20
2019-03-23T19:56:49.268Z,20.20
2019-03-23T19:59:17.389Z,20.20
2019-03-23T20:01:45.412Z,20.30
2019-03-23T20:04:13.764Z,20.10
2019-03-23T20:06:42.118Z,20.10
2019-03-23T20:09:10.205Z,20.10
2019-03-23T20:11:38.222Z,20.10
2019-03-23T20:14:06.700Z,20.00
2019-03-23T20:16:34.826Z,19.90
2019-03-23T20:19:03.106Z,19.90
2019-03-23T20:21:31.047Z,19.80
2019-03-23T20:23:58.980Z,19.80
2019-03-23T20:26:27.090Z,19.80
2019-03-23T20:28:55.036Z,19.70
2019-03-23T20:31:23.033Z,19.70
2019-03-23T20:33:51.139Z,19.60
2019-03-23T20:36:19.210Z,19.60
2019-03-23T20:38:47.362Z,19.60
2019-03-23T20:41:15.475Z,19.50
2019-03-23T20:43:43.727Z,19.50
2019-03-23T20:46:13.173Z,19.50
2019-03-23T20:48:42.028Z,19.50
2019-03-23T20:51:10.925Z,19.40
2019-03-23T20:53:39.289Z,19.40
2019-03-23T20:56:07.244Z,19.40
2019-03-23T20:58:36.182Z,19.30
2019-03-23T21:01:04.333Z,21.50
2019-03-23T21:03:32.345Z,19.30
2019-03-23T21:06:00.355Z,19.20
2019-03-23T21:08:28.609Z,19.20
2019-03-23T21:10:56.724Z,20.40
2019-03-23T21:13:24.852Z,19.20
2019-03-23T21:15:52.968Z,19.10
2019-03-23T21:18:21.040Z,19.10
2019-03-23T21:20:49.212Z,19.10
2019-03-23T21:23:17.367Z,19.00
2019-03-23T21:25:45.402Z,19.00
2019-03-23T21:28:13.639Z,19.00
2019-03-23T21:30:42.074Z,18.90
2019-03-23T21:33:09.955Z,18.90
2019-03-23T21:35:38.220Z,18.90
2019-03-23T21:38:06.333Z,18.80
2019-03-23T21:40:35.218Z,18.80
2019-03-23T21:43:03.556Z,18.80
2019-03-23T21:45:31.614Z,18.70
2019-03-23T21:47:59.718Z,18.60
2019-03-23T21:50:27.700Z,18.60
2019-03-23T21:52:55.759Z,18.60
2019-03-23T21:55:23.768Z,18.50
2019-03-23T21:57:51.731Z,18.50
2019-03-23T22:00:48.671Z,18.40
2019-03-23T22:03:17.484Z,18.40
2019-03-23T22:05:45.552Z,18.40
2019-03-23T22:08:13.782Z,18.30
2019-03-23T22:10:41.970Z,18.30
2019-03-23T22:13:13.113Z,18.20
2019-03-23T22:15:41.228Z,18.20
2019-03-23T22:18:09.372Z,18.10
2019-03-23T22:20:37.592Z,18.10
2019-03-23T22:23:05.581Z,18.10
2019-03-23T22:25:34.659Z,18.00
2019-03-23T22:28:02.654Z,18.00
2019-03-23T22:30:30.648Z,18.00
2019-03-23T22:32:58.677Z,17.90
2019-03-23T22:35:26.863Z,17.90
2019-03-23T22:37:54.778Z,17.80
2019-03-23T22:40:22.718Z,18.00
2019-03-23T22:42:50.642Z,18.50
2019-03-23T22:45:18.735Z,17.70
2019-03-23T22:47:46.585Z,17.70
2019-03-23T22:50:14.912Z,17.70
2019-03-23T22:52:44.174Z,17.60
2019-03-23T22:55:12.068Z,17.60
2019-03-23T22:57:40.114Z,17.60
2019-03-23T23:00:11.242Z,17.50
2019-03-23T23:02:39.266Z,17.50
2019-03-23T23:05:07.944Z,17.50
2019-03-23T23:07:35.855Z,17.40
2019-03-23T23:10:05.270Z,17.40
2019-03-23T23:12:33.279Z,17.40
2019-03-23T23:15:04.728Z,17.60
2019-03-23T23:17:30.986Z,17.30
2019-03-23T23:19:58.987Z,17.30
2019-03-23T23:22:27.015Z,17.20
2019-03-23T23:24:55.006Z,17.20
2019-03-23T23:27:22.987Z,17.20
2019-03-23T23:29:50.887Z,17.10
2019-03-23T23:32:18.863Z,17.10
2019-03-23T23:34:46.778Z,17.10
2019-03-23T23:37:14.788Z,17.00
2019-03-23T23:39:42.781Z,17.00
2019-03-23T23:42:10.611Z,17.00
2019-03-23T23:44:38.601Z,17.00
2019-03-23T23:47:06.554Z,16.90
2019-03-23T23:49:34.510Z,16.90
2019-03-23T23:52:02.558Z,16.90
2019-03-23T23:54:30.362Z,16.90
2019-03-23T23:56:58.351Z,16.80
2019-03-23T23:59:27.816Z,16.80
